createdAt,value
2022-11-18T00:01:18.740Z,99338.08
2022-11-18T00:03:46.402Z,99339.98
2022-11-18T00:06:18.992Z,99337.90
2022-11-18T00:08:46.847Z,99341.40
2022-11-18T00:11:36.706Z,99345.91
2022-11-18T00:14:20.107Z,99347.23
2022-11-18T00:17:02.088Z,99344.40
2022-11-18T00:19:37.964Z,99342.11
2022-11-18T00:22:07.624Z,99337.73
2022-11-18T00:24:35.159Z,99332.50
2022-11-18T00:27:02.422Z,99328.66
2022-11-18T00:29:31.148Z,99332.12
2022-11-18T00:31:58.918Z,99332.27
2022-11-18T00:34:26.316Z,99331.61
2022-11-18T00:36:53.596Z,99326.90
2022-11-18T00:39:21.613Z,99327.80
2022-11-18T00:42:08.001Z,99325.85
2022-11-18T00:44:36.142Z,99322.02
2022-11-18T00:47:03.805Z,99318.70
2022-11-18T00:49:31.004Z,99315.36
2022-11-18T00:51:58.104Z,99310.81
2022-11-18T00:54:25.125Z,99317.02
2022-11-18T00:56:52.200Z,99323.58
2022-11-18T00:59:19.618Z,99321.02
2022-11-18T01:01:47.042Z,99318.50
2022-11-18T01:04:14.122Z,99320.23
2022-11-18T01:06:41.521Z,99318.90
2022-11-18T01:09:08.622Z,99315.11
2022-11-18T01:11:54.457Z,99314.06
2022-11-18T01:14:24.858Z,99314.48
2022-11-18T01:16:55.262Z,99311.77
2022-11-18T01:19:22.773Z,99311.92
2022-11-18T01:21:50.637Z,99311.00
2022-11-18T01:24:17.991Z,99309.62
2022-11-18T01:26:45.017Z,99308.64
2022-11-18T01:29:12.140Z,99311.16
2022-11-18T01:31:55.624Z,99315.47
2022-11-18T01:34:28.895Z,99318.25
2022-11-18T01:36:57.450Z,99316.16
2022-11-18T01:39:25.087Z,99313.59
2022-11-18T01:41:52.186Z,99316.36
2022-11-18T01:45:05.336Z,99315.00
2022-11-18T01:47:58.245Z,99315.78
2022-11-18T01:50:26.678Z,99311.39
2022-11-18T01:52:58.859Z,99312.73
2022-11-18T01:55:29.887Z,99312.30
2022-11-18T01:58:04.411Z,99316.15
2022-11-18T02:00:31.457Z,99315.83
2022-11-18T02:02:59.664Z,99316.02
2022-11-18T02:05:27.192Z,99310.27
2022-11-18T02:07:54.189Z,99312.03
2022-11-18T02:10:23.441Z,99313.30
2022-11-18T02:12:52.459Z,99309.96
2022-11-18T02:15:29.287Z,99311.14
2022-11-18T02:18:13.205Z,99311.15
2022-11-18T02:20:42.792Z,99310.20
2022-11-18T02:24:02.142Z,99309.58
2022-11-18T02:27:06.407Z,99315.17
2022-11-18T02:29:43.827Z,99312.14
2022-11-18T02:32:17.683Z,99309.58
2022-11-18T02:35:06.363Z,99303.04
2022-11-18T02:38:15.292Z,99301.96
2022-11-18T02:40:46.130Z,99299.90
2022-11-18T02:43:22.911Z,99304.69
2022-11-18T02:45:53.644Z,99303.37
2022-11-18T02:48:24.734Z,99296.05
2022-11-18T02:50:53.153Z,99296.16
2022-11-18T02:53:23.463Z,99297.83
2022-11-18T02:55:52.253Z,99303.49
2022-11-18T02:58:21.374Z,99303.39
2022-11-18T03:00:56.283Z,99300.66
2022-11-18T03:03:28.094Z,99301.22
2022-11-18T03:06:07.736Z,99307.00
2022-11-18T03:08:46.277Z,99309.14
2022-11-18T03:11:18.529Z,99308.51
2022-11-18T03:14:10.761Z,99311.13
2022-11-18T03:16:47.981Z,99309.86
2022-11-18T03:19:22.498Z,99308.89
2022-11-18T03:22:04.444Z,99306.26
2022-11-18T03:24:35.108Z,99308.42
2022-11-18T03:27:16.872Z,99304.67
2022-11-18T03:29:50.958Z,99306.37
2022-11-18T03:32:23.562Z,99305.30
2022-11-18T03:34:57.691Z,99300.23
2022-11-18T03:37:26.760Z,99297.08
2022-11-18T03:40:01.168Z,99299.48
2022-11-18T03:42:35.127Z,99302.08
2022-11-18T03:45:10.369Z,99301.05
2022-11-18T03:47:42.589Z,99302.69
2022-11-18T03:50:33.600Z,99297.33
2022-11-18T03:53:02.772Z,99298.14
2022-11-18T03:55:40.524Z,99299.50
2022-11-18T03:58:21.369Z,99297.13
2022-11-18T04:00:51.799Z,99298.41
2022-11-18T04:03:19.023Z,99299.73
2022-11-18T04:05:49.218Z,99302.68
2022-11-18T04:08:24.458Z,99306.13
2022-11-18T04:11:00.069Z,99307.98
2022-11-18T04:13:35.169Z,99302.11
2022-11-18T04:16:02.300Z,99301.80
2022-11-18T04:18:29.317Z,99297.52
2022-11-18T04:20:56.366Z,99300.55
2022-11-18T04:23:23.413Z,99302.02
2022-11-18T04:25:50.412Z,99304.38
2022-11-18T04:28:17.484Z,99309.42
2022-11-18T04:30:44.533Z,99307.61
2022-11-18T04:33:11.533Z,99300.45
2022-11-18T04:35:38.551Z,99301.30
2022-11-18T04:38:05.478Z,99304.16
2022-11-18T04:40:32.494Z,99304.99
2022-11-18T04:42:59.593Z,99304.59
2022-11-18T04:45:26.617Z,99301.48
2022-11-18T04:47:55.705Z,99303.09
2022-11-18T04:50:25.961Z,99305.04
2022-11-18T04:52:53.058Z,99302.80
2022-11-18T04:55:20.644Z,99302.56
2022-11-18T04:57:47.726Z,99302.11
2022-11-18T05:00:15.280Z,99301.06
2022-11-18T05:02:42.276Z,99297.39
2022-11-18T05:05:09.502Z,99290.88
2022-11-18T05:07:36.613Z,99293.90
2022-11-18T05:10:04.012Z,99292.39
2022-11-18T05:12:49.361Z,99299.54
2022-11-18T05:15:21.325Z,99300.70
2022-11-18T05:17:48.375Z,99297.40
2022-11-18T05:20:15.949Z,99289.92
2022-11-18T05:22:42.946Z,99294.55
2022-11-18T05:25:10.260Z,99289.42
2022-11-18T05:27:37.335Z,99291.54
2022-11-18T05:30:05.379Z,99285.08
2022-11-18T05:32:32.428Z,99280.32
2022-11-18T05:34:59.427Z,99287.25
2022-11-18T05:37:26.448Z,99282.81
2022-11-18T05:39:53.547Z,99283.63
2022-11-18T05:42:39.693Z,99282.16
2022-11-18T05:45:07.062Z,99277.41
2022-11-18T05:47:54.040Z,99276.42
2022-11-18T05:50:21.604Z,99276.42
2022-11-18T05:52:48.854Z,99279.73
2022-11-18T05:55:17.462Z,99280.88
2022-11-18T05:57:45.330Z,99287.62
2022-11-18T06:00:13.095Z,99293.08
2022-11-18T06:02:43.158Z,99294.41
2022-11-18T06:05:12.464Z,99298.18
2022-11-18T06:07:43.076Z,99298.76
2022-11-18T06:10:14.016Z,99301.36
2022-11-18T06:12:45.872Z,99303.77
2022-11-18T06:15:23.318Z,99306.23
2022-11-18T06:18:01.937Z,99311.30
2022-11-18T06:20:29.569Z,99313.85
2022-11-18T06:22:58.314Z,99315.92
2022-11-18T06:25:25.741Z,99319.92
2022-11-18T06:27:56.243Z,99317.58
2022-11-18T06:30:23.454Z,99318.41
2022-11-18T06:32:50.568Z,99319.23
2022-11-18T06:35:17.748Z,99320.88
2022-11-18T06:37:44.823Z,99318.79
2022-11-18T06:40:12.483Z,99318.74
2022-11-18T06:42:58.347Z,99317.95
2022-11-18T06:45:25.480Z,99321.66
2022-11-18T06:47:56.873Z,99318.38
2022-11-18T06:50:24.229Z,99321.10
2022-11-18T06:52:51.252Z,99323.51
2022-11-18T06:55:18.352Z,99323.48
2022-11-18T06:57:45.683Z,99334.41
2022-11-18T07:00:13.721Z,99330.20
2022-11-18T07:02:40.773Z,99333.98
2022-11-18T07:05:08.155Z,99336.51
2022-11-18T07:07:41.515Z,99338.69
2022-11-18T07:10:10.156Z,99335.86
2022-11-18T07:12:37.184Z,99336.46
2022-11-18T07:15:04.553Z,99337.33
2022-11-18T07:17:31.756Z,99337.84
2022-11-18T07:19:58.843Z,99333.98
2022-11-18T07:22:25.873Z,99338.16
2022-11-18T07:24:52.860Z,99341.02
2022-11-18T07:27:19.909Z,99340.20
2022-11-18T07:29:47.518Z,99336.43
2022-11-18T07:32:14.594Z,99334.74
2022-11-18T07:34:41.589Z,99338.06
2022-11-18T07:37:08.614Z,99345.75
2022-11-18T07:39:35.661Z,99345.23
2022-11-18T07:42:02.713Z,99346.36
2022-11-18T07:44:29.757Z,99349.98
2022-11-18T07:46:56.833Z,99352.73
2022-11-18T07:49:23.854Z,99355.50
2022-11-18T07:51:50.980Z,99356.06
2022-11-18T07:54:18.084Z,99348.41
2022-11-18T07:56:45.357Z,99350.91
2022-11-18T07:59:12.355Z,99352.69
2022-11-18T08:01:39.601Z,99346.33
2022-11-18T08:04:09.368Z,99345.17
2022-11-18T08:06:37.567Z,99344.39
2022-11-18T08:09:06.126Z,99347.88
2022-11-18T08:11:33.640Z,99348.41
2022-11-18T08:14:00.762Z,99346.40
2022-11-18T08:16:28.883Z,99352.91
2022-11-18T08:18:55.934Z,99351.67
2022-11-18T08:21:23.395Z,99349.85
2022-11-18T08:23:52.383Z,99349.52
2022-11-18T08:26:20.767Z,99349.89
2022-11-18T08:28:48.704Z,99348.29
2022-11-18T08:31:18.881Z,99350.48
2022-11-18T08:33:46.413Z,99345.16
2022-11-18T08:36:20.325Z,99342.48
2022-11-18T08:38:47.472Z,99341.39
2022-11-18T08:41:17.413Z,99342.42
2022-11-18T08:43:44.589Z,99343.15
2022-11-18T08:46:11.640Z,99340.67
2022-11-18T08:48:38.682Z,99340.98
2022-11-18T08:51:05.865Z,99346.02
2022-11-18T08:53:33.137Z,99347.98
2022-11-18T08:56:01.271Z,99351.06
2022-11-18T08:58:29.029Z,99349.30
2022-11-18T09:00:56.078Z,99352.90
2022-11-18T09:03:23.615Z,99350.04
2022-11-18T09:05:50.902Z,99352.19
2022-11-18T09:08:18.017Z,99355.70
2022-11-18T09:10:45.066Z,99359.38
2022-11-18T09:13:42.590Z,99361.40
2022-11-18T09:15:59.971Z,99360.14
2022-11-18T09:18:26.971Z,99360.52
2022-11-18T09:20:56.218Z,99363.03
2022-11-18T09:23:23.705Z,99359.11
2022-11-18T09:26:00.153Z,99362.38
2022-11-18T09:28:27.373Z,99367.42
2022-11-18T09:30:55.190Z,99366.80
2022-11-18T09:33:23.012Z,99365.02
2022-11-18T09:35:50.362Z,99364.91
2022-11-18T09:38:17.410Z,99361.50
2022-11-18T09:40:56.363Z,99359.27
2022-11-18T09:43:41.878Z,99360.55
2022-11-18T09:46:53.948Z,99360.95
2022-11-18T09:49:28.957Z,99363.33
2022-11-18T09:51:57.674Z,99363.11
2022-11-18T09:54:29.889Z,99360.02
2022-11-18T09:56:57.226Z,99353.00
2022-11-18T09:59:31.769Z,99353.44
2022-11-18T10:02:17.503Z,99349.92
2022-11-18T10:04:44.783Z,99347.52
2022-11-18T10:07:27.319Z,99348.05
2022-11-18T10:09:56.593Z,99350.29
2022-11-18T10:12:42.101Z,99353.83
2022-11-18T10:15:32.875Z,99352.44
2022-11-18T10:18:52.809Z,99352.47
2022-11-18T10:21:34.740Z,99354.23
2022-11-18T10:24:17.249Z,99354.75
2022-11-18T10:26:44.993Z,99357.27
2022-11-18T10:29:12.277Z,99359.47
2022-11-18T10:32:04.766Z,99360.06
2022-11-18T10:34:33.631Z,99362.07
2022-11-18T10:37:23.597Z,99363.02
2022-11-18T10:40:00.983Z,99365.86
2022-11-18T10:42:46.669Z,99366.16
2022-11-18T10:45:19.865Z,99367.75
2022-11-18T10:48:03.034Z,99371.98
2022-11-18T10:50:55.071Z,99376.05
2022-11-18T10:53:37.557Z,99379.42
2022-11-18T10:56:13.996Z,99382.25
2022-11-18T10:58:43.378Z,99379.95
2022-11-18T11:01:16.331Z,99385.87
2022-11-18T11:03:58.642Z,99388.31
2022-11-18T11:06:38.419Z,99389.48
2022-11-18T11:09:10.149Z,99390.64
2022-11-18T11:11:43.734Z,99389.61
2022-11-18T11:14:16.934Z,99388.72
2022-11-18T11:17:07.679Z,99387.98
2022-11-18T11:19:53.127Z,99389.77
2022-11-18T11:22:20.354Z,99391.41
2022-11-18T11:24:47.476Z,99390.66
2022-11-18T11:30:19.332Z,99392.95
2022-11-18T11:33:15.437Z,99390.94
2022-11-18T11:35:42.488Z,99394.94
2022-11-18T11:38:39.690Z,99390.48
2022-11-18T11:41:31.674Z,99394.70
2022-11-18T11:44:36.456Z,99399.11
2022-11-18T11:47:47.408Z,99395.59
2022-11-18T11:51:04.975Z,99396.81
2022-11-18T11:54:00.204Z,99399.27
2022-11-18T11:56:47.011Z,99401.97
2022-11-18T11:59:20.322Z,99406.50
2022-11-18T12:01:50.786Z,99404.09
2022-11-18T12:04:30.304Z,99407.11
2022-11-18T12:06:59.109Z,99406.48
2022-11-18T12:09:32.129Z,99405.16
2022-11-18T12:12:38.436Z,99407.79
2022-11-18T12:15:33.940Z,99406.42
2022-11-18T12:18:26.535Z,99411.96
2022-11-18T12:20:56.655Z,99414.83
2022-11-18T12:23:28.516Z,99414.88
2022-11-18T12:25:58.482Z,99413.02
2022-11-18T12:28:37.463Z,99418.77
2022-11-18T12:31:16.592Z,99424.21
2022-11-18T12:33:49.835Z,99425.62
2022-11-18T12:36:27.098Z,99432.45
2022-11-18T12:38:55.452Z,99435.04
2022-11-18T12:41:59.928Z,99437.33
2022-11-18T12:44:29.486Z,99433.59
2022-11-18T12:46:57.506Z,99435.61
2022-11-18T12:49:24.504Z,99438.19
2022-11-18T12:51:53.906Z,99435.49
2022-11-18T12:54:35.163Z,99440.23
2022-11-18T12:57:18.595Z,99440.65
2022-11-18T12:59:45.625Z,99444.28
2022-11-18T13:02:12.690Z,99444.12
2022-11-18T13:04:44.544Z,99448.73
2022-11-18T13:07:39.589Z,99448.66
2022-11-18T13:10:22.709Z,99450.02
2022-11-18T13:12:51.136Z,99447.35
2022-11-18T13:15:37.666Z,99445.63
2022-11-18T13:18:13.957Z,99449.66
2022-11-18T13:20:42.848Z,99446.13
2022-11-18T13:23:28.455Z,99452.92
2022-11-18T13:26:06.052Z,99451.21
2022-11-18T13:28:38.553Z,99452.73
2022-11-18T13:31:14.575Z,99455.45
2022-11-18T13:33:41.736Z,99457.21
2022-11-18T13:36:26.326Z,99465.41
2022-11-18T13:38:59.619Z,99468.25
2022-11-18T13:41:32.895Z,99471.88
2022-11-18T13:44:36.132Z,99476.78
2022-11-18T13:47:15.750Z,99479.40
2022-11-18T13:50:07.272Z,99479.58
2022-11-18T13:53:01.404Z,99477.61
2022-11-18T13:56:02.452Z,99484.52
2022-11-18T14:01:35.228Z,99493.63
2022-11-18T14:04:15.309Z,99496.66
2022-11-18T14:06:42.611Z,99495.98
2022-11-18T14:09:18.817Z,99495.02
2022-11-18T14:11:58.802Z,99494.62
2022-11-18T14:14:38.476Z,99497.20
2022-11-18T14:17:26.154Z,99494.17
2022-11-18T14:20:01.794Z,99497.85
2022-11-18T14:22:33.648Z,99495.59
2022-11-18T14:25:20.662Z,99496.86
2022-11-18T14:27:49.852Z,99493.69
2022-11-18T14:30:32.188Z,99495.14
2022-11-18T14:33:17.689Z,99495.55
2022-11-18T14:35:54.390Z,99494.06
2022-11-18T14:38:57.459Z,99498.80
2022-11-18T14:41:16.364Z,99500.73
2022-11-18T14:43:46.217Z,99498.61
2022-11-18T14:46:17.883Z,99504.41
2022-11-18T14:48:45.624Z,99504.55
2022-11-18T14:51:14.420Z,99504.16
2022-11-18T14:53:42.414Z,99503.73
2022-11-18T14:56:25.791Z,99506.22
2022-11-18T14:58:53.017Z,99510.17
2022-11-18T15:01:20.124Z,99513.52
2022-11-18T15:03:47.344Z,99514.12
2022-11-18T15:06:16.157Z,99516.83
2022-11-18T15:08:45.209Z,99518.23
2022-11-18T15:11:12.251Z,99518.61
2022-11-18T15:13:39.913Z,99519.44
2022-11-18T15:16:15.512Z,99521.02
2022-11-18T15:18:43.043Z,99521.79
2022-11-18T15:21:10.887Z,99524.91
2022-11-18T15:23:37.938Z,99527.03
2022-11-18T15:26:18.379Z,99529.03
2022-11-18T15:28:46.628Z,99531.81
2022-11-18T15:31:13.705Z,99533.23
2022-11-18T15:33:40.798Z,99537.58
2022-11-18T15:36:18.445Z,99539.55
2022-11-18T15:38:46.184Z,99538.79
2022-11-18T15:41:18.710Z,99540.67
2022-11-18T15:43:46.374Z,99534.64
2022-11-18T15:46:15.098Z,99541.86
2022-11-18T15:48:42.487Z,99541.56
2022-11-18T15:51:12.185Z,99546.48
2022-11-18T15:53:39.978Z,99546.24
2022-11-18T15:56:24.782Z,99549.36
2022-11-18T15:58:57.220Z,99547.69
2022-11-18T16:01:27.093Z,99550.04
2022-11-18T16:03:54.531Z,99554.05
2022-11-18T16:06:22.501Z,99559.15
2022-11-18T16:08:52.171Z,99563.51
2022-11-18T16:11:41.580Z,99565.85
2022-11-18T16:14:10.983Z,99572.21
2022-11-18T16:16:39.490Z,99570.27
2022-11-18T16:19:08.920Z,99569.40
2022-11-18T16:21:39.450Z,99570.64
2022-11-18T16:24:09.138Z,99571.50
2022-11-18T16:26:37.314Z,99573.95
2022-11-18T16:29:05.534Z,99573.61
2022-11-18T16:31:43.659Z,99572.79
2022-11-18T16:34:13.762Z,99572.41
2022-11-18T16:36:43.908Z,99573.69
2022-11-18T16:39:13.906Z,99572.14
2022-11-18T16:41:42.688Z,99572.08
2022-11-18T16:44:14.241Z,99580.85
2022-11-18T16:46:45.929Z,99587.91
2022-11-18T16:49:14.625Z,99587.52
2022-11-18T16:51:43.736Z,99591.38
2022-11-18T16:54:19.714Z,99590.59
2022-11-18T16:56:48.094Z,99595.84
2022-11-18T16:59:22.557Z,99601.57
2022-11-18T17:01:50.694Z,99601.30
2022-11-18T17:04:19.027Z,99605.70
2022-11-18T17:06:46.558Z,99611.21
2022-11-18T17:09:16.667Z,99614.41
2022-11-18T17:11:44.261Z,99620.63
2022-11-18T17:14:12.382Z,99620.30
2022-11-18T17:16:39.710Z,99626.31
2022-11-18T17:19:11.589Z,99626.41
2022-11-18T17:21:39.551Z,99624.83
2022-11-18T17:24:07.229Z,99628.73
2022-11-18T17:26:34.678Z,99635.56
2022-11-18T17:29:01.916Z,99637.52
2022-11-18T17:31:29.170Z,99644.85
2022-11-18T17:33:56.676Z,99650.84
2022-11-18T17:36:26.441Z,99653.84
2022-11-18T17:38:55.825Z,99657.59
2022-11-18T17:41:44.762Z,99660.42
2022-11-18T17:44:14.286Z,99670.19
2022-11-18T17:46:42.127Z,99673.23
2022-11-18T17:49:18.876Z,99672.95
2022-11-18T17:51:48.821Z,99683.55
2022-11-18T17:54:16.246Z,99680.20
2022-11-18T17:56:43.544Z,99681.92
2022-11-18T17:59:10.940Z,99682.21
2022-11-18T18:01:38.063Z,99683.14
2022-11-18T18:04:05.389Z,99683.46
2022-11-18T18:06:32.415Z,99681.11
2022-11-18T18:09:00.079Z,99677.89
2022-11-18T18:11:28.514Z,99678.29
2022-11-18T18:14:14.259Z,99680.06
2022-11-18T18:16:44.415Z,99677.69
2022-11-18T18:19:14.584Z,99678.79
2022-11-18T18:21:41.581Z,99680.29
2022-11-18T18:24:09.858Z,99681.17
2022-11-18T18:26:37.122Z,99682.58
2022-11-18T18:29:05.108Z,99686.05
2022-11-18T18:31:36.927Z,99687.66
2022-11-18T18:34:04.581Z,99683.95
2022-11-18T18:36:32.345Z,99681.65
2022-11-18T18:39:00.023Z,99684.92
2022-11-18T18:41:27.186Z,99683.70
2022-11-18T18:43:54.232Z,99682.27
2022-11-18T18:46:30.932Z,99683.38
2022-11-18T18:49:12.320Z,99683.65
2022-11-18T18:51:40.464Z,99686.40
2022-11-18T18:54:10.359Z,99683.62
2022-11-18T18:56:38.727Z,99683.98
2022-11-18T18:59:06.882Z,99681.49
2022-11-18T19:01:34.174Z,99683.62
2022-11-18T19:04:04.153Z,99681.40
2022-11-18T19:09:23.412Z,99686.76
2022-11-18T19:12:09.525Z,99691.88
2022-11-18T19:14:36.582Z,99689.73
2022-11-18T19:17:10.063Z,99689.70
2022-11-18T19:19:57.322Z,99696.23
2022-11-18T19:22:32.415Z,99696.44
2022-11-18T19:25:00.542Z,99699.84
2022-11-18T19:27:28.357Z,99699.38
2022-11-18T19:30:01.018Z,99695.17
2022-11-18T19:32:31.074Z,99696.81
2022-11-18T19:34:58.113Z,99692.20
2022-11-18T19:37:25.149Z,99695.34
2022-11-18T19:39:52.223Z,99694.75
2022-11-18T19:42:19.295Z,99698.20
2022-11-18T19:44:46.347Z,99699.71
2022-11-18T19:47:13.396Z,99704.94
2022-11-18T19:49:40.389Z,99706.18
2022-11-18T19:52:07.421Z,99707.48
2022-11-18T19:54:34.977Z,99703.80
2022-11-18T19:57:04.045Z,99699.86
2022-11-18T19:59:31.192Z,99702.22
2022-11-18T20:02:01.261Z,99704.89
2022-11-18T20:04:28.414Z,99704.76
2022-11-18T20:06:56.874Z,99704.86
2022-11-18T20:09:25.446Z,99704.52
2022-11-18T20:11:52.652Z,99706.29
2022-11-18T20:14:19.754Z,99705.85
2022-11-18T20:17:00.454Z,99706.02
2022-11-18T20:20:16.399Z,99712.36
2022-11-18T20:22:43.449Z,99715.98
2022-11-18T20:25:10.524Z,99717.11
2022-11-18T20:27:37.830Z,99722.36
2022-11-18T20:30:05.155Z,99722.14
2022-11-18T20:32:32.232Z,99722.84
2022-11-18T20:34:59.279Z,99726.29
2022-11-18T20:37:28.107Z,99729.15
2022-11-18T20:39:55.372Z,99728.23
2022-11-18T20:42:41.419Z,99729.34
2022-11-18T20:45:08.979Z,99734.30
2022-11-18T20:47:35.998Z,99732.79
2022-11-18T20:50:03.073Z,99733.34
2022-11-18T20:52:30.044Z,99729.34
2022-11-18T20:55:01.306Z,99728.27
2022-11-18T20:57:31.342Z,99730.39
2022-11-18T20:59:58.362Z,99732.11
2022-11-18T21:02:25.406Z,99741.06
2022-11-18T21:04:52.512Z,99735.29
2022-11-18T21:07:19.608Z,99741.02
2022-11-18T21:09:47.960Z,99741.14
2022-11-18T21:12:14.954Z,99742.37
2022-11-18T21:14:42.184Z,99739.82
2022-11-18T21:17:09.179Z,99738.20
2022-11-18T21:19:36.176Z,99739.08
2022-11-18T21:22:04.713Z,99737.66
2022-11-18T21:24:34.123Z,99740.60
2022-11-18T21:27:02.773Z,99744.97
2022-11-18T21:29:31.461Z,99750.94
2022-11-18T21:32:02.660Z,99745.02
2022-11-18T21:34:30.292Z,99742.85
2022-11-18T21:36:58.269Z,99741.38
2022-11-18T21:39:25.543Z,99741.44
2022-11-18T21:41:56.243Z,99740.80
2022-11-18T21:44:25.420Z,99744.20
2022-11-18T21:46:53.034Z,99741.88
2022-11-18T21:49:20.049Z,99743.02
2022-11-18T21:51:47.310Z,99737.39
2022-11-18T21:54:16.144Z,99735.75
2022-11-18T21:56:43.260Z,99739.79
2022-11-18T21:59:10.332Z,99739.55
2022-11-18T22:01:37.375Z,99740.91
2022-11-18T22:04:05.835Z,99745.19
2022-11-18T22:06:34.540Z,99744.70
2022-11-18T22:09:03.541Z,99743.20
2022-11-18T22:11:30.968Z,99742.97
2022-11-18T22:13:58.356Z,99741.84
2022-11-18T22:16:26.188Z,99743.33
2022-11-18T22:19:00.256Z,99746.90
2022-11-18T22:21:28.406Z,99743.69
2022-11-18T22:24:00.328Z,99746.41
2022-11-18T22:26:28.623Z,99745.20
2022-11-18T22:28:57.874Z,99748.59
2022-11-18T22:31:27.026Z,99748.54
2022-11-18T22:33:55.902Z,99741.71
2022-11-18T22:36:24.696Z,99738.43
2022-11-18T22:38:52.938Z,99745.08
2022-11-18T22:41:41.932Z,99747.54
2022-11-18T22:44:10.303Z,99747.08
2022-11-18T22:46:38.794Z,99747.61
2022-11-18T22:49:12.551Z,99748.99
2022-11-18T22:51:52.558Z,99748.43
2022-11-18T22:57:06.669Z,99747.40
2022-11-18T22:59:33.868Z,99745.26
2022-11-18T23:02:01.927Z,99746.58
2022-11-18T23:04:28.961Z,99748.67
2022-11-18T23:06:56.097Z,99747.45
2022-11-18T23:09:23.237Z,99745.27
2022-11-18T23:12:09.178Z,99740.23
2022-11-18T23:14:36.173Z,99743.81
2022-11-18T23:17:04.556Z,99746.02
2022-11-18T23:19:31.650Z,99747.27
2022-11-18T23:21:58.731Z,99749.72
2022-11-18T23:24:25.802Z,99747.39
2022-11-18T23:26:52.749Z,99740.35
2022-11-18T23:29:20.683Z,99744.66
2022-11-18T23:31:48.250Z,99747.38
2022-11-18T23:34:15.682Z,99744.79
2022-11-18T23:36:43.611Z,99742.41
2022-11-18T23:39:10.726Z,99740.81
2022-11-18T23:41:37.953Z,99741.64
2022-11-18T23:44:06.029Z,99743.06
2022-11-18T23:46:33.613Z,99747.02
2022-11-18T23:49:00.993Z,99749.86
2022-11-18T23:51:28.144Z,99750.27
2022-11-18T23:53:57.586Z,99749.62
2022-11-18T23:56:26.571Z,99751.79
2022-11-18T23:58:55.943Z,99746.32
